createdAt,value
2019-02-14T00:00:11.412Z,6.10
2019-02-14T00:02:39.904Z,6.10
2019-02-14T00:05:16.122Z,6.00
2019-02-14T00:07:38.971Z,6.00
2019-02-14T00:10:09.430Z,5.90
2019-02-14T00:12:37.871Z,5.90
2019-02-14T00:15:11.296Z,5.90
2019-02-14T00:17:39.792Z,5.90
2019-02-14T00:20:09.745Z,5.90
2019-02-14T00:22:38.227Z,5.80
2019-02-14T00:25:07.452Z,5.80
2019-02-14T00:27:36.070Z,5.70
2019-02-14T00:30:06.168Z,5.70
2019-02-14T00:32:34.587Z,5.60
2019-02-14T00:35:03.276Z,5.60
2019-02-14T00:37:32.034Z,5.60
2019-02-14T00:40:00.440Z,5.50
2019-02-14T00:42:28.862Z,5.40
2019-02-14T00:44:57.666Z,5.40
2019-02-14T00:47:26.088Z,5.40
2019-02-14T00:49:54.517Z,5.40
2019-02-14T00:52:23.107Z,5.40
2019-02-14T00:54:51.599Z,5.30
2019-02-14T00:57:20.134Z,5.30
2019-02-14T00:59:48.620Z,5.30
2019-02-14T01:02:17.064Z,5.20
2019-02-14T01:04:45.856Z,5.30
2019-02-14T01:07:14.355Z,5.20
2019-02-14T01:09:42.792Z,5.10
2019-02-14T01:12:11.605Z,5.10
2019-02-14T01:14:40.359Z,5.10
2019-02-14T01:17:08.854Z,5.10
2019-02-14T01:19:37.311Z,5.00
2019-02-14T01:22:06.030Z,4.90
2019-02-14T01:24:34.693Z,4.70
2019-02-14T01:27:03.136Z,4.60
2019-02-14T01:29:31.859Z,4.50
2019-02-14T01:32:00.301Z,4.50
2019-02-14T01:34:28.735Z,4.50
2019-02-14T01:36:57.175Z,4.60
2019-02-14T01:39:25.633Z,4.60
2019-02-14T01:41:54.403Z,4.60
2019-02-14T01:44:23.171Z,4.60
2019-02-14T01:46:51.610Z,4.60
2019-02-14T01:49:20.043Z,4.60
2019-02-14T01:51:48.464Z,4.60
2019-02-14T01:54:17.198Z,4.60
2019-02-14T01:56:45.646Z,4.60
2019-02-14T01:59:14.133Z,4.60
2019-02-14T02:01:42.557Z,4.50
2019-02-14T02:04:11.316Z,4.60
2019-02-14T02:06:40.122Z,4.60
2019-02-14T02:09:08.658Z,4.60
2019-02-14T02:11:37.215Z,4.60
2019-02-14T02:14:05.649Z,4.60
2019-02-14T02:16:34.342Z,4.60
2019-02-14T02:19:02.790Z,4.60
2019-02-14T02:21:31.508Z,4.60
2019-02-14T02:23:59.933Z,4.40
2019-02-14T02:26:28.364Z,4.40
2019-02-14T02:28:56.803Z,4.30
2019-02-14T02:31:25.247Z,4.30
2019-02-14T02:33:53.672Z,4.20
2019-02-14T02:36:22.428Z,4.20
2019-02-14T02:38:51.194Z,4.20
2019-02-14T02:41:19.654Z,4.30
2019-02-14T02:43:48.074Z,4.30
2019-02-14T02:46:16.518Z,4.40
2019-02-14T02:48:44.951Z,4.40
2019-02-14T02:51:13.391Z,4.30
2019-02-14T02:53:42.201Z,4.30
2019-02-14T02:56:11.076Z,4.30
2019-02-14T02:58:39.496Z,4.30
2019-02-14T03:01:44.346Z,4.20
2019-02-14T03:04:13.069Z,4.20
2019-02-14T03:06:41.753Z,4.20
2019-02-14T03:09:10.473Z,4.10
2019-02-14T03:11:38.953Z,4.00
2019-02-14T03:14:07.713Z,3.90
2019-02-14T03:16:36.155Z,3.90
2019-02-14T03:19:04.596Z,3.90
2019-02-14T03:21:33.016Z,3.80
2019-02-14T03:24:01.483Z,3.90
2019-02-14T03:26:30.234Z,3.90
2019-02-14T03:28:58.655Z,4.00
2019-02-14T03:31:27.098Z,4.00
2019-02-14T03:33:55.508Z,4.00
2019-02-14T03:36:24.249Z,3.90
2019-02-14T03:38:52.699Z,3.90
2019-02-14T03:41:21.124Z,3.80
2019-02-14T03:43:49.908Z,3.90
2019-02-14T03:46:20.698Z,3.80
2019-02-14T03:48:49.178Z,3.80
2019-02-14T03:51:17.652Z,3.70
2019-02-14T03:53:46.093Z,3.70
2019-02-14T03:56:14.593Z,3.60
2019-02-14T03:58:43.345Z,3.60
2019-02-14T04:01:12.169Z,3.60
2019-02-14T04:03:40.586Z,3.50
2019-02-14T04:06:09.322Z,3.50
2019-02-14T04:08:38.107Z,3.50
2019-02-14T04:11:06.598Z,3.60
2019-02-14T04:13:35.000Z,3.60
2019-02-14T04:16:04.525Z,3.60
2019-02-14T04:18:33.481Z,3.50
2019-02-14T04:21:01.908Z,3.50
2019-02-14T04:23:30.836Z,3.50
2019-02-14T04:25:59.285Z,3.50
2019-02-14T04:28:27.989Z,3.50
2019-02-14T04:30:56.428Z,3.50
2019-02-14T04:33:24.864Z,3.50
2019-02-14T04:35:53.282Z,3.50
2019-02-14T04:38:21.703Z,3.50
2019-02-14T04:40:50.129Z,3.40
2019-02-14T04:43:18.611Z,3.40
2019-02-14T04:45:47.375Z,3.40
2019-02-14T04:48:15.793Z,3.40
2019-02-14T04:50:44.303Z,3.40
2019-02-14T04:53:13.027Z,3.40
2019-02-14T04:55:41.693Z,3.30
2019-02-14T04:58:10.131Z,3.30
2019-02-14T05:00:38.572Z,3.30
2019-02-14T05:03:06.989Z,3.20
2019-02-14T05:05:35.752Z,3.20
2019-02-14T05:08:04.264Z,3.20
2019-02-14T05:10:32.687Z,3.20
2019-02-14T05:13:01.136Z,3.10
2019-02-14T05:15:29.579Z,3.10
2019-02-14T05:17:58.069Z,3.10
2019-02-14T05:20:26.829Z,3.00
2019-02-14T05:22:55.263Z,2.90
2019-02-14T05:25:23.710Z,2.80
2019-02-14T05:27:52.161Z,2.90
2019-02-14T05:30:20.848Z,2.90
2019-02-14T05:32:49.366Z,2.90
2019-02-14T05:35:18.124Z,2.90
2019-02-14T05:37:46.906Z,2.90
2019-02-14T05:40:15.592Z,2.90
2019-02-14T05:42:44.398Z,2.80
2019-02-14T05:45:14.301Z,2.80
2019-02-14T05:47:42.726Z,2.80
2019-02-14T05:50:12.809Z,2.80
2019-02-14T05:52:41.589Z,2.80
2019-02-14T05:55:11.819Z,2.80
2019-02-14T05:57:40.615Z,2.80
2019-02-14T06:00:14.159Z,2.80
2019-02-14T06:02:42.595Z,2.80
2019-02-14T06:05:11.057Z,2.80
2019-02-14T06:07:39.465Z,2.80
2019-02-14T06:10:10.005Z,2.80
2019-02-14T06:12:38.440Z,2.80
2019-02-14T06:15:13.580Z,2.70
2019-02-14T06:17:41.995Z,2.70
2019-02-14T06:20:12.469Z,2.70
2019-02-14T06:22:41.031Z,2.60
2019-02-14T06:25:10.969Z,2.70
2019-02-14T06:27:39.783Z,2.70
2019-02-14T06:30:11.398Z,2.70
2019-02-14T06:32:39.852Z,2.60
2019-02-14T06:35:10.160Z,2.70
2019-02-14T06:37:38.940Z,2.70
2019-02-14T06:40:12.380Z,2.70
2019-02-14T06:42:40.800Z,2.70
2019-02-14T06:45:14.443Z,2.60
2019-02-14T06:47:42.865Z,2.60
2019-02-14T06:50:11.779Z,2.60
2019-02-14T06:52:40.505Z,2.60
2019-02-14T06:55:09.784Z,2.60
2019-02-14T06:57:38.222Z,2.60
2019-02-14T07:00:17.805Z,2.60
2019-02-14T07:02:46.291Z,2.70
2019-02-14T07:05:15.067Z,2.70
2019-02-14T07:07:43.494Z,2.70
2019-02-14T07:10:12.493Z,2.70
2019-02-14T07:12:40.928Z,2.70
2019-02-14T07:15:11.700Z,2.80
2019-02-14T07:17:40.448Z,2.80
2019-02-14T07:20:17.117Z,2.80
2019-02-14T07:22:45.538Z,2.80
2019-02-14T07:25:14.289Z,2.80
2019-02-14T07:27:43.067Z,2.80
2019-02-14T07:30:20.178Z,2.80
2019-02-14T07:32:48.673Z,2.90
2019-02-14T07:35:17.175Z,2.90
2019-02-14T07:37:45.897Z,3.00
2019-02-14T07:40:15.298Z,3.00
2019-02-14T07:42:43.711Z,3.00
2019-02-14T07:45:14.200Z,3.00
2019-02-14T07:47:42.909Z,3.10
2019-02-14T07:50:12.837Z,3.20
2019-02-14T07:52:41.365Z,3.30
2019-02-14T07:55:14.038Z,3.40
2019-02-14T07:57:42.572Z,3.40
2019-02-14T08:00:19.193Z,3.50
2019-02-14T08:02:47.605Z,3.60
2019-02-14T08:05:16.026Z,3.70
2019-02-14T08:07:44.457Z,3.80
2019-02-14T08:10:16.100Z,3.90
2019-02-14T08:12:44.531Z,4.00
2019-02-14T08:15:15.942Z,4.10
2019-02-14T08:17:44.389Z,4.20
2019-02-14T08:20:17.626Z,4.40
2019-02-14T08:22:46.428Z,4.60
2019-02-14T08:25:14.845Z,4.70
2019-02-14T08:27:43.581Z,4.80
2019-02-14T08:30:14.497Z,4.80
2019-02-14T08:32:43.215Z,4.90
2019-02-14T08:35:11.688Z,4.90
2019-02-14T08:37:45.378Z,5.00
2019-02-14T08:40:16.566Z,5.10
2019-02-14T08:42:44.987Z,5.10
2019-02-14T08:45:13.580Z,5.20
2019-02-14T08:47:42.017Z,5.20
2019-02-14T08:50:11.032Z,5.20
2019-02-14T08:52:39.516Z,5.30
2019-02-14T08:55:10.026Z,5.30
2019-02-14T08:57:38.716Z,5.40
2019-02-14T09:00:12.342Z,5.50
2019-02-14T09:02:40.795Z,5.60
2019-02-14T09:05:09.653Z,5.60
2019-02-14T09:07:38.075Z,5.70
2019-02-14T09:10:11.923Z,5.80
2019-02-14T09:12:40.341Z,5.80
2019-02-14T09:15:11.486Z,5.90
2019-02-14T09:17:40.257Z,5.90
2019-02-14T09:20:11.989Z,5.90
2019-02-14T09:22:40.465Z,5.90
2019-02-14T09:25:09.268Z,5.90
2019-02-14T09:27:37.963Z,6.00
2019-02-14T09:30:09.354Z,6.10
2019-02-14T09:32:37.814Z,6.10
2019-02-14T09:35:08.289Z,6.10
2019-02-14T09:37:37.021Z,6.20
2019-02-14T09:40:11.458Z,6.30
2019-02-14T09:42:39.905Z,6.30
2019-02-14T09:45:11.184Z,6.30
2019-02-14T09:47:39.626Z,6.40
2019-02-14T09:50:10.779Z,6.40
2019-02-14T09:52:39.914Z,6.50
2019-02-14T09:55:13.047Z,6.50
2019-02-14T09:57:41.568Z,6.50
2019-02-14T10:00:15.548Z,6.60
2019-02-14T10:02:44.254Z,6.70
2019-02-14T10:05:13.062Z,6.70
2019-02-14T10:07:41.498Z,6.80
2019-02-14T10:10:19.652Z,6.90
2019-02-14T10:12:48.112Z,7.10
2019-02-14T10:15:16.805Z,7.20
2019-02-14T10:17:45.589Z,7.30
2019-02-14T10:20:18.503Z,7.40
2019-02-14T10:22:47.254Z,7.50
2019-02-14T10:25:15.730Z,7.60
2019-02-14T10:27:44.185Z,7.80
2019-02-14T10:30:20.764Z,7.90
2019-02-14T10:32:49.241Z,8.10
2019-02-14T10:35:17.775Z,8.30
2019-02-14T10:37:46.195Z,8.60
2019-02-14T10:40:16.204Z,8.80
2019-02-14T10:42:44.634Z,9.00
2019-02-14T10:45:23.266Z,9.10
2019-02-14T10:47:52.041Z,9.20
2019-02-14T10:50:20.824Z,9.30
2019-02-14T10:52:49.257Z,9.30
2019-02-14T10:55:17.699Z,9.30
2019-02-14T10:57:46.485Z,9.40
2019-02-14T11:00:26.435Z,9.40
2019-02-14T11:02:54.981Z,9.50
2019-02-14T11:05:23.714Z,9.60
2019-02-14T11:07:52.217Z,9.70
2019-02-14T11:10:20.768Z,9.80
2019-02-14T11:12:49.249Z,9.90
2019-02-14T11:15:20.292Z,9.90
2019-02-14T11:17:49.134Z,10.00
2019-02-14T11:20:18.352Z,10.10
2019-02-14T11:22:48.761Z,10.00
2019-02-14T11:25:20.345Z,10.00
2019-02-14T11:27:48.784Z,10.10
2019-02-14T11:30:17.249Z,10.10
2019-02-14T11:32:45.684Z,10.30
2019-02-14T11:35:14.394Z,10.70
2019-02-14T11:37:42.832Z,11.60
2019-02-14T11:40:12.908Z,12.40
2019-02-14T11:42:41.349Z,13.60
2019-02-14T11:45:13.126Z,14.70
2019-02-14T11:47:41.574Z,15.40
2019-02-14T11:50:11.934Z,15.80
2019-02-14T11:52:40.369Z,15.90
2019-02-14T11:55:10.233Z,15.90
2019-02-14T11:57:38.747Z,15.60
2019-02-14T12:00:17.596Z,15.50
2019-02-14T12:02:54.738Z,15.70
2019-02-14T12:05:16.469Z,16.10
2019-02-14T12:07:44.998Z,16.70
2019-02-14T12:10:14.212Z,17.30
2019-02-14T12:12:43.015Z,17.20
2019-02-14T12:15:12.774Z,17.40
2019-02-14T12:17:41.220Z,17.60
2019-02-14T12:20:12.555Z,18.30
2019-02-14T12:22:46.681Z,19.20
2019-02-14T12:25:17.908Z,20.10
2019-02-14T12:27:46.322Z,20.80
2019-02-14T12:30:16.618Z,21.60
2019-02-14T12:32:45.046Z,21.50
2019-02-14T12:35:13.493Z,21.20
2019-02-14T12:37:41.929Z,21.10
2019-02-14T12:40:12.326Z,21.10
2019-02-14T12:42:41.090Z,20.90
2019-02-14T12:45:23.636Z,21.20
2019-02-14T12:47:51.652Z,21.70
2019-02-14T12:50:20.091Z,21.50
2019-02-14T12:52:48.520Z,22.30
2019-02-14T12:55:16.957Z,22.30
2019-02-14T12:57:45.381Z,23.00
2019-02-14T13:00:19.334Z,22.80
2019-02-14T13:02:47.765Z,22.90
2019-02-14T13:05:16.185Z,22.90
2019-02-14T13:07:44.634Z,22.50
2019-02-14T13:10:15.733Z,22.60
2019-02-14T13:12:44.663Z,23.00
2019-02-14T13:15:18.432Z,23.20
2019-02-14T13:17:47.167Z,23.10
2019-02-14T13:20:15.658Z,24.00
2019-02-14T13:22:44.427Z,23.90
2019-02-14T13:25:13.176Z,23.80
2019-02-14T13:27:41.640Z,24.10
2019-02-14T13:30:13.298Z,24.30
2019-02-14T13:32:41.796Z,24.40
2019-02-14T13:35:10.327Z,24.70
2019-02-14T13:37:40.160Z,24.70
2019-02-14T13:40:09.487Z,25.10
2019-02-14T13:42:38.223Z,25.60
2019-02-14T13:45:12.165Z,25.70
2019-02-14T13:47:40.901Z,26.20
2019-02-14T13:50:12.052Z,26.50
2019-02-14T13:52:40.737Z,26.10
2019-02-14T13:55:10.608Z,26.50
2019-02-14T13:57:39.197Z,26.20
2019-02-14T14:00:23.096Z,26.10
2019-02-14T14:02:51.623Z,26.10
2019-02-14T14:05:20.061Z,26.40
2019-02-14T14:07:48.515Z,26.50
2019-02-14T14:10:17.210Z,26.60
2019-02-14T14:12:45.672Z,26.90
2019-02-14T14:15:14.107Z,27.00
2019-02-14T14:17:42.547Z,26.80
2019-02-14T14:20:11.361Z,27.10
2019-02-14T14:22:39.868Z,27.00
2019-02-14T14:25:10.710Z,27.10
2019-02-14T14:27:39.138Z,27.10
2019-02-14T14:30:10.326Z,27.20
2019-02-14T14:32:38.764Z,27.30
2019-02-14T14:35:10.774Z,27.60
2019-02-14T14:37:39.099Z,27.70
2019-02-14T14:40:13.361Z,27.50
2019-02-14T14:42:43.475Z,27.60
2019-02-14T14:45:13.534Z,27.80
2019-02-14T14:47:41.999Z,27.80
2019-02-14T14:50:10.521Z,27.50
2019-02-14T14:52:38.968Z,27.30
2019-02-14T14:55:07.585Z,27.10
2019-02-14T14:57:36.112Z,27.60
2019-02-14T15:00:06.984Z,27.80
2019-02-14T15:02:35.701Z,28.00
2019-02-14T15:05:04.619Z,27.60
2019-02-14T15:07:33.053Z,27.80
2019-02-14T15:10:01.487Z,27.80
2019-02-14T15:12:29.921Z,27.70
2019-02-14T15:14:58.372Z,27.40
2019-02-14T15:17:26.830Z,27.10
2019-02-14T15:19:55.567Z,26.80
2019-02-14T15:22:24.013Z,26.20
2019-02-14T15:24:52.464Z,25.70
2019-02-14T15:27:20.918Z,25.20
2019-02-14T15:29:49.356Z,24.80
2019-02-14T15:32:17.800Z,24.40
2019-02-14T15:34:46.236Z,23.90
2019-02-14T15:37:15.386Z,23.50
2019-02-14T15:39:45.595Z,23.10
2019-02-14T15:42:14.023Z,22.70
2019-02-14T15:44:42.475Z,22.40
2019-02-14T15:47:11.236Z,22.20
2019-02-14T15:49:40.005Z,22.00
2019-02-14T15:52:08.449Z,21.80
2019-02-14T15:54:36.891Z,21.60
2019-02-14T15:57:05.375Z,21.40
2019-02-14T15:59:34.136Z,21.20
2019-02-14T16:02:03.882Z,21.10
2019-02-14T16:04:33.251Z,20.80
2019-02-14T16:07:01.689Z,20.40
2019-02-14T16:09:30.444Z,20.00
2019-02-14T16:11:59.218Z,19.50
2019-02-14T16:14:27.729Z,19.00
2019-02-14T16:16:56.206Z,18.60
2019-02-14T16:19:24.623Z,18.20
2019-02-14T16:21:54.268Z,17.90
2019-02-14T16:24:23.533Z,17.50
2019-02-14T16:26:52.356Z,17.20
2019-02-14T16:29:22.753Z,16.90
2019-02-14T16:31:50.978Z,16.60
2019-02-14T16:34:20.061Z,16.30
2019-02-14T16:36:48.843Z,16.10
2019-02-14T16:39:17.406Z,15.80
2019-02-14T16:41:45.845Z,15.60
2019-02-14T16:44:14.285Z,15.40
2019-02-14T16:46:42.734Z,15.20
2019-02-14T16:49:11.457Z,15.00
2019-02-14T16:51:39.877Z,14.80
2019-02-14T16:54:08.342Z,14.60
2019-02-14T16:56:36.748Z,14.50
2019-02-14T16:59:05.216Z,14.40
2019-02-14T17:01:33.976Z,14.30
2019-02-14T17:04:02.409Z,14.10
2019-02-14T17:06:31.258Z,14.00
2019-02-14T17:09:00.018Z,13.90
2019-02-14T17:11:28.479Z,13.70
2019-02-14T17:13:57.213Z,13.60
2019-02-14T17:16:25.970Z,13.50
2019-02-14T17:18:54.761Z,13.40
2019-02-14T17:21:23.176Z,13.20
2019-02-14T17:23:51.947Z,13.10
2019-02-14T17:26:20.736Z,13.00
2019-02-14T17:28:49.187Z,12.90
2019-02-14T17:31:17.620Z,12.80
2019-02-14T17:33:46.055Z,12.70
2019-02-14T17:36:14.781Z,12.60
2019-02-14T17:38:43.313Z,12.50
2019-02-14T17:41:12.131Z,12.40
2019-02-14T17:43:40.570Z,12.30
2019-02-14T17:46:09.072Z,12.10
2019-02-14T17:48:37.507Z,12.00
2019-02-14T17:51:05.996Z,11.90
2019-02-14T17:53:34.520Z,11.90
2019-02-14T17:56:03.027Z,11.80
2019-02-14T17:58:31.486Z,11.70
2019-02-14T18:00:59.928Z,11.60
2019-02-14T18:03:28.410Z,11.60
2019-02-14T18:05:56.885Z,11.50
2019-02-14T18:08:25.395Z,11.40
2019-02-14T18:10:55.211Z,11.30
2019-02-14T18:13:24.129Z,11.20
2019-02-14T18:15:52.910Z,11.20
2019-02-14T18:18:21.692Z,11.10
2019-02-14T18:21:08.547Z,11.00
2019-02-14T18:23:36.974Z,10.90
2019-02-14T18:26:05.399Z,10.80
2019-02-14T18:28:33.851Z,10.80
2019-02-14T18:31:02.291Z,10.70
2019-02-14T18:33:32.268Z,10.60
2019-02-14T18:36:00.815Z,10.60
2019-02-14T18:38:30.357Z,10.60
2019-02-14T18:41:04.161Z,10.50
2019-02-14T18:43:29.245Z,10.40
2019-02-14T18:45:57.708Z,10.40
2019-02-14T18:48:26.150Z,10.30
2019-02-14T18:50:54.643Z,10.30
2019-02-14T18:53:23.115Z,10.20
2019-02-14T18:55:51.849Z,10.10
2019-02-14T18:58:26.328Z,10.10
2019-02-14T19:00:50.796Z,10.10
2019-02-14T19:03:34.089Z,10.00
2019-02-14T19:06:02.909Z,10.00
2019-02-14T19:08:31.369Z,9.90
2019-02-14T19:10:59.804Z,9.80
2019-02-14T19:13:28.233Z,9.80
2019-02-14T19:15:56.684Z,9.70
2019-02-14T19:18:26.389Z,9.60
2019-02-14T19:20:54.973Z,9.60
2019-02-14T19:23:24.509Z,9.50
2019-02-14T19:25:53.123Z,9.40
2019-02-14T19:28:21.576Z,9.40
2019-02-14T19:30:50.252Z,9.30
2019-02-14T19:33:18.689Z,9.30
2019-02-14T19:35:47.442Z,9.20
2019-02-14T19:38:16.105Z,9.20
2019-02-14T19:40:44.552Z,9.10
2019-02-14T19:43:13.378Z,9.10
2019-02-14T19:45:41.838Z,9.00
2019-02-14T19:48:10.559Z,8.90
2019-02-14T19:50:39.019Z,8.90
2019-02-14T19:53:07.446Z,8.80
2019-02-14T19:55:35.914Z,8.80
2019-02-14T19:58:04.396Z,8.70
2019-02-14T20:00:32.910Z,8.70
2019-02-14T20:03:01.396Z,8.60
2019-02-14T20:05:30.707Z,8.60
2019-02-14T20:07:59.216Z,8.60
2019-02-14T20:10:27.711Z,8.50
2019-02-14T20:12:56.220Z,8.50
2019-02-14T20:15:24.928Z,8.40
2019-02-14T20:17:53.396Z,8.40
2019-02-14T20:20:21.817Z,8.30
2019-02-14T20:22:50.269Z,8.30
2019-02-14T20:25:24.359Z,8.20
2019-02-14T20:27:52.878Z,8.20
2019-02-14T20:30:21.700Z,8.10
2019-02-14T20:32:50.132Z,8.10
2019-02-14T20:35:18.728Z,8.00
2019-02-14T20:37:47.157Z,7.90
2019-02-14T20:40:15.689Z,7.90
2019-02-14T20:42:44.122Z,7.90
2019-02-14T20:45:14.295Z,7.80
2019-02-14T20:47:42.810Z,7.80
2019-02-14T20:50:15.400Z,7.70
2019-02-14T20:52:43.995Z,7.60
2019-02-14T20:55:26.473Z,7.60
2019-02-14T20:57:54.928Z,7.50
2019-02-14T21:00:27.948Z,7.50
2019-02-14T21:02:56.396Z,7.40
2019-02-14T21:05:24.833Z,7.40
2019-02-14T21:07:53.324Z,7.30
2019-02-14T21:10:21.736Z,7.30
2019-02-14T21:12:50.183Z,7.20
2019-02-14T21:15:18.651Z,7.10
2019-02-14T21:17:47.313Z,7.10
2019-02-14T21:20:16.620Z,7.00
2019-02-14T21:22:45.053Z,7.00
2019-02-14T21:25:13.947Z,6.90
2019-02-14T21:27:42.445Z,6.90
2019-02-14T21:30:18.479Z,6.80
2019-02-14T21:32:47.122Z,6.80
2019-02-14T21:35:15.779Z,6.70
2019-02-14T21:37:44.252Z,6.70
2019-02-14T21:40:17.844Z,6.60
2019-02-14T21:42:46.330Z,6.60
2019-02-14T21:45:16.233Z,6.60
2019-02-14T21:47:44.655Z,6.50
2019-02-14T21:50:14.538Z,6.50
2019-02-14T21:52:43.520Z,6.50
2019-02-14T21:55:15.701Z,6.40
2019-02-14T21:57:44.532Z,6.40
2019-02-14T22:00:15.999Z,6.40
2019-02-14T22:02:44.993Z,6.30
2019-02-14T22:05:13.822Z,6.30
2019-02-14T22:07:42.402Z,6.20
2019-02-14T22:10:12.798Z,6.10
2019-02-14T22:12:43.050Z,6.10
2019-02-14T22:15:19.802Z,6.00
2019-02-14T22:17:48.341Z,6.00
2019-02-14T22:20:17.138Z,6.00
2019-02-14T22:22:45.550Z,5.90
2019-02-14T22:25:14.159Z,5.90
2019-02-14T22:27:42.564Z,5.80
2019-02-14T22:30:16.850Z,5.80
2019-02-14T22:32:45.923Z,5.70
2019-02-14T22:35:14.551Z,5.70
2019-02-14T22:37:43.380Z,5.60
2019-02-14T22:40:13.430Z,5.60
2019-02-14T22:42:47.192Z,5.60
2019-02-14T22:45:13.970Z,5.50
2019-02-14T22:47:43.568Z,5.50
2019-02-14T22:50:12.986Z,5.50
2019-02-14T22:52:41.451Z,5.40
2019-02-14T22:55:11.552Z,5.40
2019-02-14T22:57:40.101Z,5.40
2019-02-14T23:00:14.764Z,5.30
2019-02-14T23:02:43.192Z,5.30
2019-02-14T23:05:11.661Z,5.20
2019-02-14T23:07:40.159Z,5.20
2019-02-14T23:10:08.672Z,5.10
2019-02-14T23:12:37.092Z,5.10
2019-02-14T23:15:07.493Z,5.10
2019-02-14T23:17:36.291Z,5.10
2019-02-14T23:20:06.382Z,5.00
2019-02-14T23:22:35.143Z,5.00
2019-02-14T23:25:04.184Z,4.90
2019-02-14T23:27:32.662Z,4.90
2019-02-14T23:30:01.107Z,4.90
2019-02-14T23:32:29.536Z,4.90
2019-02-14T23:34:57.968Z,4.80
2019-02-14T23:37:26.486Z,4.80
2019-02-14T23:39:54.908Z,4.70
2019-02-14T23:42:23.350Z,4.70
2019-02-14T23:44:52.144Z,4.70
2019-02-14T23:47:20.572Z,4.60
2019-02-14T23:49:48.995Z,4.60
2019-02-14T23:52:17.780Z,4.60
2019-02-14T23:54:46.206Z,4.60
2019-02-14T23:57:14.948Z,4.50
2019-02-14T23:59:43.404Z,4.50
